TAF : OOMS 261700Z 2618/2724 14008KT 8000 NSC BECMG 2706/2708 07015KT BECMG 2716/2718 13008KT